Time;durP1;ratioP1;P1;durP2;ratioP2;P2;SDS_P1;SDS_P2;PMS_P1;PMS_P2;Temp;Humidity;BMP_temperature;BMP_pressure;BME280_temperature;BME280_humidity;BME280_pressure;Samples;Min_cycle;Max_cycle;Signal;HPM_P1;HPM_P2
2021/07/08 00:01:13;;;;;;;;;;;19.10;75.50;;;;;;5031045;28;20381;-62
2021/07/08 00:03:38;;;;;;;;;;;19.10;75.70;;;;;;5029958;28;20305;-62
2021/07/08 00:06:04;;;;;;;;;;;19.10;75.70;;;;;;5031355;28;20301;-63
2021/07/08 00:08:29;;;;;;;;;;;19.10;75.90;;;;;;5030509;28;20361;-62
2021/07/08 00:10:55;;;;;;;;;;;19.00;76.00;;;;;;5031192;28;19917;-61
2021/07/08 00:13:22;;;;;;;;;;;19.00;76.10;;;;;;5029938;28;20377;-60
2021/07/08 00:15:48;;;;;;;;;;;19.00;76.30;;;;;;5029449;28;19924;-63
2021/07/08 00:18:14;;;;;;;;;;;18.90;76.40;;;;;;5029414;28;19921;-62
2021/07/08 00:20:41;;;;;;;;;;;18.80;76.50;;;;;;5029510;28;19918;-64
2021/07/08 00:23:07;;;;;;;;;;;18.70;76.70;;;;;;5031358;28;20087;-62
2021/07/08 00:25:33;;;;;;;;;;;18.60;76.90;;;;;;5031103;28;19917;-62
2021/07/08 00:27:59;;;;;;;;;;;18.60;77.10;;;;;;5030496;28;19918;-62
2021/07/08 00:30:25;;;;;;;;;;;18.50;77.30;;;;;;5031194;28;19917;-63
2021/07/08 00:32:51;;;;;;;;;;;18.40;77.40;;;;;;5031160;28;19917;-63
2021/07/08 00:35:17;;;;;;;;;;;18.30;77.70;;;;;;5029227;28;19918;-62
2021/07/08 00:37:43;;;;;;;;;;;18.30;77.90;;;;;;5029272;28;19927;-63
2021/07/08 00:40:10;;;;;;;;;;;18.20;78.00;;;;;;5030715;28;19917;-65
2021/07/08 00:42:36;;;;;;;;;;;18.10;78.20;;;;;;5031009;28;19917;-63
2021/07/08 00:45:03;;;;;;;;;;;18.10;78.40;;;;;;5031083;28;19940;-62
2021/07/08 00:47:29;;;;;;;;;;;18.00;78.60;;;;;;5032957;28;20273;-63
2021/07/08 00:49:54;;;;;;;;;;;18.00;78.90;;;;;;5034496;28;19970;-62
2021/07/08 00:52:20;;;;;;;;;;;17.90;79.10;;;;;;5034691;28;20380;-63
2021/07/08 00:54:46;;;;;;;;;;;17.90;79.40;;;;;;5033973;28;19917;-60
2021/07/08 00:57:12;;;;;;;;;;;17.90;79.70;;;;;;5034123;28;20007;-63
2021/07/08 00:59:44;;;;;;;;;;;17.90;79.90;;;;;;5033996;28;20439;-60
2021/07/08 01:02:13;;;;;;;;;;;17.80;80.00;;;;;;5034411;28;19917;-63
2021/07/08 01:04:43;;;;;;;;;;;17.80;80.20;;;;;;5032778;28;19924;-63
2021/07/08 01:07:10;;;;;;;;;;;17.80;80.30;;;;;;5034240;28;20128;-63
2021/07/08 01:09:35;;;;;;;;;;;17.80;80.60;;;;;;5034240;28;19921;-62
2021/07/08 01:12:01;;;;;;;;;;;17.80;80.80;;;;;;5033750;28;20040;-62
2021/07/08 01:14:27;;;;;;;;;;;17.90;81.50;;;;;;5033037;28;19917;-63
2021/07/08 01:16:52;;;;;;;;;;;17.90;81.20;;;;;;5032226;28;19921;-62
2021/07/08 01:19:18;;;;;;;;;;;18.00;81.30;;;;;;5033075;28;19921;-63
2021/07/08 01:21:43;;;;;;;;;;;18.00;81.30;;;;;;5033234;28;19917;-63
2021/07/08 01:24:09;;;;;;;;;;;18.00;81.30;;;;;;5033280;28;20012;-61
2021/07/08 01:26:37;;;;;;;;;;;18.00;81.30;;;;;;5033588;28;20012;-62
2021/07/08 01:29:03;;;;;;;;;;;18.00;81.40;;;;;;5033864;28;19949;-63
2021/07/08 01:31:28;;;;;;;;;;;18.00;81.60;;;;;;5032101;28;19941;-63
2021/07/08 01:33:54;;;;;;;;;;;18.00;81.80;;;;;;5033807;28;20340;-63
2021/07/08 01:36:20;;;;;;;;;;;18.00;81.80;;;;;;5033498;28;20261;-64
2021/07/08 01:38:45;;;;;;;;;;;18.10;82.00;;;;;;5032995;28;19921;-63
2021/07/08 01:41:11;;;;;;;;;;;18.10;82.20;;;;;;5033678;28;20420;-63
2021/07/08 01:43:38;;;;;;;;;;;18.10;82.10;;;;;;5033262;28;20007;-63
2021/07/08 01:46:04;;;;;;;;;;;18.10;82.10;;;;;;5033415;28;19918;-62
2021/07/08 01:48:30;;;;;;;;;;;18.10;82.10;;;;;;5033041;28;20279;-63
2021/07/08 01:50:56;;;;;;;;;;;18.10;82.10;;;;;;5033125;28;19932;-63
2021/07/08 01:53:21;;;;;;;;;;;18.10;82.10;;;;;;5033416;28;19918;-62
2021/07/08 01:55:47;;;;;;;;;;;18.00;82.20;;;;;;5033441;28;20412;-62
2021/07/08 01:58:12;;;;;;;;;;;18.00;82.30;;;;;;5032424;28;20381;-63
2021/07/08 02:00:38;;;;;;;;;;;17.90;82.20;;;;;;5033381;28;19917;-63
2021/07/08 02:03:03;;;;;;;;;;;17.90;82.20;;;;;;5033038;28;19913;-61
2021/07/08 02:05:29;;;;;;;;;;;17.80;82.20;;;;;;5033321;28;20039;-63
2021/07/08 02:07:54;;;;;;;;;;;17.80;82.40;;;;;;5032881;28;20393;-63
2021/07/08 02:10:20;;;;;;;;;;;17.70;82.40;;;;;;5032742;28;20270;-63
2021/07/08 02:12:46;;;;;;;;;;;17.60;82.50;;;;;;5033052;28;20002;-62
2021/07/08 02:15:12;;;;;;;;;;;17.50;82.70;;;;;;5033082;28;20373;-62
2021/07/08 02:17:39;;;;;;;;;;;17.40;82.80;;;;;;5032202;28;19975;-63
2021/07/08 02:20:09;;;;;;;;;;;17.30;83.50;;;;;;5032937;28;19929;-63
2021/07/08 02:22:35;;;;;;;;;;;17.30;83.30;;;;;;5032520;28;19937;-62
2021/07/08 02:25:01;;;;;;;;;;;17.30;83.60;;;;;;5032828;28;19920;-64
2021/07/08 02:27:27;;;;;;;;;;;17.20;83.80;;;;;;5032718;28;19921;-63
2021/07/08 02:29:52;;;;;;;;;;;17.30;84.10;;;;;;5032348;28;19917;-64
2021/07/08 02:32:18;;;;;;;;;;;17.30;84.40;;;;;;5031539;28;19917;-65
2021/07/08 02:34:44;;;;;;;;;;;17.30;84.70;;;;;;5032834;28;19964;-64
2021/07/08 02:37:10;;;;;;;;;;;17.30;84.80;;;;;;5031805;28;19957;-65
2021/07/08 02:39:36;;;;;;;;;;;17.50;84.90;;;;;;5032626;28;19921;-67
2021/07/08 02:42:02;;;;;;;;;;;17.40;84.80;;;;;;5032160;28;19917;-62
2021/07/08 02:44:28;;;;;;;;;;;17.50;84.80;;;;;;5032520;28;19929;-63
2021/07/08 02:46:53;;;;;;;;;;;17.50;84.80;;;;;;5032014;28;19929;-62
2021/07/08 02:49:19;;;;;;;;;;;17.50;84.80;;;;;;5031943;28;19937;-63
2021/07/08 02:51:44;;;;;;;;;;;17.50;84.90;;;;;;5031110;28;19917;-63
2021/07/08 02:54:10;;;;;;;;;;;17.50;85.00;;;;;;5032377;28;19924;-62
2021/07/08 02:56:35;;;;;;;;;;;17.50;85.10;;;;;;5031516;28;19921;-63
2021/07/08 02:59:01;;;;;;;;;;;17.50;85.20;;;;;;5032045;28;19923;-63
2021/07/08 03:01:27;;;;;;;;;;;17.50;85.30;;;;;;5031796;28;20381;-63
2021/07/08 03:03:52;;;;;;;;;;;17.50;85.40;;;;;;5031895;28;20004;-63
2021/07/08 03:06:18;;;;;;;;;;;17.50;85.50;;;;;;5032034;28;20416;-63
2021/07/08 03:08:43;;;;;;;;;;;17.60;85.70;;;;;;5030867;28;19917;-63
2021/07/08 03:11:09;;;;;;;;;;;17.70;85.80;;;;;;5032090;28;19921;-62
2021/07/08 03:13:37;;;;;;;;;;;17.70;85.70;;;;;;5030731;28;19917;-62
2021/07/08 03:16:03;;;;;;;;;;;17.70;85.60;;;;;;5031520;28;19917;-66
2021/07/08 03:18:28;;;;;;;;;;;17.70;85.50;;;;;;5031742;28;19943;-62
2021/07/08 03:20:54;;;;;;;;;;;17.70;85.60;;;;;;5031605;28;19920;-64
2021/07/08 03:23:19;;;;;;;;;;;17.70;85.80;;;;;;5031879;28;20143;-61
2021/07/08 03:25:45;;;;;;;;;;;17.80;86.10;;;;;;5031923;28;19928;-63
2021/07/08 03:28:11;;;;;;;;;;;17.80;86.20;;;;;;5031137;28;19921;-62
2021/07/08 03:30:36;;;;;;;;;;;17.90;86.20;;;;;;5030551;28;20278;-63
2021/07/08 03:33:03;;;;;;;;;;;17.90;86.10;;;;;;5031868;28;20337;-62
2021/07/08 03:35:29;;;;;;;;;;;18.00;86.00;;;;;;5031379;28;20377;-63
2021/07/08 03:37:55;;;;;;;;;;;18.00;85.90;;;;;;5031204;28;19972;-62
2021/07/08 03:40:20;;;;;;;;;;;18.00;85.80;;;;;;5031514;28;20115;-63
2021/07/08 03:42:49;;;;;;;;;;;18.10;85.80;;;;;;5031567;28;20371;-64
2021/07/08 03:45:15;;;;;;;;;;;18.10;85.80;;;;;;5031567;28;20019;-64
2021/07/08 03:47:41;;;;;;;;;;;18.10;85.80;;;;;;5030726;28;20012;-64
2021/07/08 03:50:07;;;;;;;;;;;18.10;86.00;;;;;;5031514;28;20373;-62
2021/07/08 03:52:33;;;;;;;;;;;18.10;86.10;;;;;;5031614;28;20293;-64
2021/07/08 03:54:59;;;;;;;;;;;18.20;86.20;;;;;;5031177;28;19924;-63
2021/07/08 03:57:24;;;;;;;;;;;18.30;86.20;;;;;;5031071;28;19933;-63
2021/07/08 03:59:50;;;;;;;;;;;18.30;86.10;;;;;;5031166;28;19918;-64
2021/07/08 04:02:16;;;;;;;;;;;18.40;85.90;;;;;;5031444;28;19987;-63
2021/07/08 04:04:42;;;;;;;;;;;18.40;85.80;;;;;;5031313;28;19941;-64
2021/07/08 04:07:08;;;;;;;;;;;18.50;85.80;;;;;;5030562;28;19983;-64
2021/07/08 04:09:34;;;;;;;;;;;18.50;85.70;;;;;;5029974;28;19921;-64
2021/07/08 04:12:00;;;;;;;;;;;18.50;85.70;;;;;;5031263;28;19956;-65
2021/07/08 04:14:25;;;;;;;;;;;18.50;85.70;;;;;;5029299;28;19954;-64
2021/07/08 04:16:51;;;;;;;;;;;18.50;85.60;;;;;;5031102;28;19947;-64
2021/07/08 04:19:16;;;;;;;;;;;18.50;85.70;;;;;;5030956;28;19921;-63
2021/07/08 04:21:42;;;;;;;;;;;18.50;85.80;;;;;;5033045;28;20324;-63
2021/07/08 04:24:07;;;;;;;;;;;18.50;85.80;;;;;;5035078;28;19924;-64
2021/07/08 04:26:33;;;;;;;;;;;18.60;86.00;;;;;;5034511;28;19917;-62
2021/07/08 04:28:59;;;;;;;;;;;18.60;86.40;;;;;;5034806;28;19918;-63
2021/07/08 04:31:24;;;;;;;;;;;18.70;85.80;;;;;;5034408;28;20389;-67
2021/07/08 04:33:50;;;;;;;;;;;18.80;85.70;;;;;;5034892;28;19925;-64
2021/07/08 04:36:16;;;;;;;;;;;18.80;85.60;;;;;;5034722;28;19917;-63
2021/07/08 04:38:42;;;;;;;;;;;18.90;85.50;;;;;;5034025;28;19917;-63
2021/07/08 04:41:09;;;;;;;;;;;18.90;85.40;;;;;;5034623;28;19921;-64
2021/07/08 04:43:35;;;;;;;;;;;19.00;85.40;;;;;;5034718;28;20000;-63
2021/07/08 04:46:00;;;;;;;;;;;19.10;85.20;;;;;;5034261;28;20012;-63
2021/07/08 04:48:26;;;;;;;;;;;19.10;85.00;;;;;;5014789;22;19926;-68
2021/07/08 04:50:51;;;;;;;;;;;19.10;84.70;;;;;;4990196;28;20357;-68
2021/07/08 04:53:17;;;;;;;;;;;19.10;84.60;;;;;;4990671;28;20327;-68
2021/07/08 04:55:42;;;;;;;;;;;19.10;84.60;;;;;;4991801;28;19922;-68
2021/07/08 04:58:08;;;;;;;;;;;19.20;84.70;;;;;;4978057;28;20557;-67
2021/07/08 05:00:34;;;;;;;;;;;19.30;84.80;;;;;;4971238;28;20289;-68
2021/07/08 05:03:04;;;;;;;;;;;19.40;84.90;;;;;;4971762;28;20355;-68
2021/07/08 05:05:30;;;;;;;;;;;19.50;84.80;;;;;;4970672;28;19949;-67
2021/07/08 05:07:56;;;;;;;;;;;19.60;84.50;;;;;;4971990;28;19958;-68
2021/07/08 05:10:21;;;;;;;;;;;19.70;84.20;;;;;;4970601;28;19926;-68
2021/07/08 05:12:47;;;;;;;;;;;19.70;84.00;;;;;;4972171;28;19923;-68
2021/07/08 05:15:15;;;;;;;;;;;19.70;83.80;;;;;;4972257;28;19919;-68
2021/07/08 05:17:41;;;;;;;;;;;19.70;83.60;;;;;;4971300;28;19929;-67
2021/07/08 05:20:07;;;;;;;;;;;19.80;83.60;;;;;;4972056;28;20408;-68
2021/07/08 05:22:33;;;;;;;;;;;19.80;83.40;;;;;;4971818;28;20005;-67
2021/07/08 05:24:59;;;;;;;;;;;19.80;83.20;;;;;;4970599;28;19952;-68
2021/07/08 05:27:24;;;;;;;;;;;19.80;83.10;;;;;;4971616;28;19954;-67
2021/07/08 05:29:50;;;;;;;;;;;19.80;83.10;;;;;;4970161;28;20439;-68
2021/07/08 05:32:16;;;;;;;;;;;19.80;83.20;;;;;;4971424;28;19918;-68
2021/07/08 05:34:42;;;;;;;;;;;19.90;83.20;;;;;;4971898;28;20282;-67
2021/07/08 05:37:08;;;;;;;;;;;20.00;83.00;;;;;;4969835;28;19922;-67
2021/07/08 05:39:34;;;;;;;;;;;20.10;83.40;;;;;;4971891;28;20547;-68
2021/07/08 05:41:59;;;;;;;;;;;20.10;82.80;;;;;;4972010;28;20443;-68
2021/07/08 05:44:25;;;;;;;;;;;20.20;82.70;;;;;;4971151;28;19956;-68
2021/07/08 05:46:51;;;;;;;;;;;20.40;82.60;;;;;;4971283;28;19921;-67
2021/07/08 05:49:16;;;;;;;;;;;20.50;82.40;;;;;;4971488;28;20294;-67
2021/07/08 05:51:42;;;;;;;;;;;20.60;82.40;;;;;;4970369;28;19925;-68
2021/07/08 05:54:08;;;;;;;;;;;20.80;82.30;;;;;;4970215;28;20013;-68
2021/07/08 05:56:34;;;;;;;;;;;21.00;82.10;;;;;;4971017;28;19930;-68
2021/07/08 05:58:59;;;;;;;;;;;21.30;82.10;;;;;;4971453;28;20401;-68
2021/07/08 06:01:25;;;;;;;;;;;21.60;82.60;;;;;;4970148;28;19922;-68
2021/07/08 06:03:51;;;;;;;;;;;21.80;81.30;;;;;;4970973;28;19918;-68
2021/07/08 06:06:16;;;;;;;;;;;21.90;80.30;;;;;;4971515;28;20434;-68
2021/07/08 06:08:43;;;;;;;;;;;21.90;79.90;;;;;;4970707;28;19918;-67
2021/07/08 06:11:09;;;;;;;;;;;21.90;79.00;;;;;;4971308;28;20021;-68
2021/07/08 06:13:35;;;;;;;;;;;21.80;78.40;;;;;;4970050;28;20527;-66
2021/07/08 06:16:00;;;;;;;;;;;21.80;78.10;;;;;;4970666;28;19925;-66
2021/07/08 06:18:26;;;;;;;;;;;21.90;78.20;;;;;;4970902;28;19958;-66
2021/07/08 06:20:52;;;;;;;;;;;21.90;77.90;;;;;;4971098;28;20444;-66
2021/07/08 06:23:19;;;;;;;;;;;22.10;77.80;;;;;;4970796;28;20439;-68
2021/07/08 06:25:46;;;;;;;;;;;22.10;78.20;;;;;;4969723;28;19924;-68
2021/07/08 06:28:11;;;;;;;;;;;22.70;79.80;;;;;;4970283;28;20436;-68
2021/07/08 06:30:37;;;;;;;;;;;23.10;78.30;;;;;;4970976;28;19914;-68
2021/07/08 06:33:02;;;;;;;;;;;23.30;76.40;;;;;;4970985;28;20465;-68
2021/07/08 06:35:28;;;;;;;;;;;23.40;75.60;;;;;;4970599;28;20428;-68
2021/07/08 06:37:53;;;;;;;;;;;23.40;74.50;;;;;;4969352;28;19926;-68
2021/07/08 06:40:19;;;;;;;;;;;23.30;74.10;;;;;;4970917;28;20003;-68
2021/07/08 06:42:46;;;;;;;;;;;23.20;73.40;;;;;;4970467;28;19950;-69
2021/07/08 06:45:16;;;;;;;;;;;23.00;73.40;;;;;;4967913;28;21247;-69
2021/07/08 06:47:47;;;;;;;;;;;23.00;73.30;;;;;;4970041;28;19929;-69
2021/07/08 06:50:13;;;;;;;;;;;22.90;73.10;;;;;;4970670;28;20005;-69
2021/07/08 06:52:38;;;;;;;;;;;22.70;72.70;;;;;;4970409;28;19953;-68
2021/07/08 06:55:05;;;;;;;;;;;22.70;73.30;;;;;;4970698;28;19918;-69
2021/07/08 06:57:30;;;;;;;;;;;22.60;73.40;;;;;;4968972;28;19926;-69
2021/07/08 06:59:56;;;;;;;;;;;22.60;73.40;;;;;;4970225;28;20282;-69
2021/07/08 07:02:21;;;;;;;;;;;22.60;73.20;;;;;;4970595;28;19918;-69
2021/07/08 07:04:47;;;;;;;;;;;22.60;73.30;;;;;;4969426;28;19918;-70
2021/07/08 07:07:15;;;;;;;;;;;22.60;73.70;;;;;;4969847;28;19919;-69
2021/07/08 07:09:41;;;;;;;;;;;22.80;73.90;;;;;;4963006;28;19946;-67
2021/07/08 07:12:06;;;;;;;;;;;23.30;74.60;;;;;;4963398;28;20313;-67
2021/07/08 07:14:32;;;;;;;;;;;23.80;74.10;;;;;;4970291;28;19925;-67
2021/07/08 07:16:58;;;;;;;;;;;24.40;73.90;;;;;;4970204;28;19949;-67
2021/07/08 07:19:23;;;;;;;;;;;25.10;73.70;;;;;;4969835;28;19918;-69
2021/07/08 07:21:49;;;;;;;;;;;26.00;73.70;;;;;;4969029;28;19925;-69
2021/07/08 07:24:14;;;;;;;;;;;26.70;71.40;;;;;;4970214;28;19918;-69
2021/07/08 07:26:40;;;;;;;;;;;27.30;69.50;;;;;;4969722;28;19950;-69
2021/07/08 07:29:05;;;;;;;;;;;27.40;66.80;;;;;;4964748;28;19933;-67
2021/07/08 07:31:31;;;;;;;;;;;27.60;66.10;;;;;;4958733;28;19958;-67
2021/07/08 07:33:57;;;;;;;;;;;28.50;67.80;;;;;;4969288;28;19922;-66
2021/07/08 07:36:22;;;;;;;;;;;30.40;69.20;;;;;;4970020;28;19922;-67
2021/07/08 07:38:48;;;;;;;;;;;32.60;66.20;;;;;;4969208;28;19983;-67
2021/07/08 07:41:14;;;;;;;;;;;34.10;61.30;;;;;;4970064;28;19945;-67
2021/07/08 07:43:39;;;;;;;;;;;34.10;55.40;;;;;;4969661;28;19925;-66
2021/07/08 07:46:05;;;;;;;;;;;33.30;52.60;;;;;;4988606;28;19918;-66
2021/07/08 07:48:33;;;;;;;;;;;32.30;50.90;;;;;;4988921;28;19926;-66
2021/07/08 07:50:58;;;;;;;;;;;31.40;50.90;;;;;;4989195;28;20076;-66
2021/07/08 07:53:24;;;;;;;;;;;30.80;51.90;;;;;;4988812;28;20474;-66
2021/07/08 07:55:50;;;;;;;;;;;30.60;52.50;;;;;;4991195;28;19914;-67
2021/07/08 07:58:16;;;;;;;;;;;30.80;52.80;;;;;;4979105;28;19981;-65
2021/07/08 08:00:41;;;;;;;;;;;31.40;52.10;;;;;;4965926;28;19981;-65
2021/07/08 08:03:07;;;;;;;;;;;31.10;49.90;;;;;;4976530;28;19925;-66
2021/07/08 08:05:37;;;;;;;;;;;30.90;50.50;;;;;;4981268;28;19925;-66
2021/07/08 08:10:47;;;;;;;;;;;31.00;50.50;;;;;;4992372;28;19956;-66
2021/07/08 08:13:13;;;;;;;;;;;30.60;48.70;;;;;;4992337;28;19967;-66
2021/07/08 08:15:38;;;;;;;;;;;30.10;48.60;;;;;;4991977;28;19918;-65
2021/07/08 08:18:04;;;;;;;;;;;29.80;49.30;;;;;;4992042;28;19925;-66
2021/07/08 08:20:30;;;;;;;;;;;30.00;50.80;;;;;;4991140;28;20000;-65
2021/07/08 08:22:56;;;;;;;;;;;30.80;51.90;;;;;;4990736;28;20385;-66
2021/07/08 08:25:22;;;;;;;;;;;31.50;51.10;;;;;;4990915;28;19937;-65
2021/07/08 08:27:48;;;;;;;;;;;32.20;50.30;;;;;;4991751;28;19925;-65
2021/07/08 08:30:14;;;;;;;;;;;32.50;48.70;;;;;;4991718;28;19924;-65
2021/07/08 08:32:43;;;;;;;;;;;32.90;48.10;;;;;;4990716;28;19918;-66
2021/07/08 08:35:09;;;;;;;;;;;33.20;48.00;;;;;;4990148;28;19917;-66
2021/07/08 08:37:35;;;;;;;;;;;35.20;50.70;;;;;;4991686;28;19922;-67
2021/07/08 08:40:02;;;;;;;;;;;37.70;48.30;;;;;;4992203;28;19924;-66
2021/07/08 08:42:28;;;;;;;;;;;39.50;44.30;;;;;;4991645;28;20454;-66
2021/07/08 08:44:54;;;;;;;;;;;41.10;42.20;;;;;;4983271;28;19926;-66
2021/07/08 08:47:19;;;;;;;;;;;42.10;39.30;;;;;;4971769;28;19929;-66
2021/07/08 08:49:45;;;;;;;;;;;42.80;37.30;;;;;;4972411;28;19918;-67
2021/07/08 08:52:11;;;;;;;;;;;43.10;35.40;;;;;;4972552;28;20005;-67
2021/07/08 08:54:39;;;;;;;;;;;42.70;33.60;;;;;;4984192;28;19953;-66
2021/07/08 08:57:05;;;;;;;;;;;42.80;33.80;;;;;;4991427;28;19921;-67
2021/07/08 08:59:31;;;;;;;;;;;42.60;32.60;;;;;;4991792;28;19925;-66
2021/07/08 09:02:15;;;;;;;;;;;42.20;32.20;;;;;;4990151;28;19918;-66
2021/07/08 09:04:41;;;;;;;;;;;41.80;31.60;;;;;;4991203;28;19925;-65
2021/07/08 09:07:19;;;;;;;;;;;41.00;31.10;;;;;;4990529;28;20290;-66
2021/07/08 09:09:45;;;;;;;;;;;40.50;30.90;;;;;;4991632;28;19993;-66
2021/07/08 09:12:17;;;;;;;;;;;39.20;30.60;;;;;;4991071;28;19996;-66
2021/07/08 09:14:43;;;;;;;;;;;37.80;31.00;;;;;;4966927;28;19922;-65
2021/07/08 09:17:15;;;;;;;;;;;36.30;31.90;;;;;;4969844;28;19963;-66
2021/07/08 09:19:41;;;;;;;;;;;35.60;33.50;;;;;;4970655;28;20013;-67
2021/07/08 09:22:06;;;;;;;;;;;35.70;34.60;;;;;;4971985;28;19945;-67
2021/07/08 09:24:34;;;;;;;;;;;35.40;34.20;;;;;;4971572;28;19925;-65
2021/07/08 09:27:00;;;;;;;;;;;34.90;34.70;;;;;;4971683;28;19918;-66
2021/07/08 09:29:30;;;;;;;;;;;34.70;35.10;;;;;;4971685;28;19983;-65
2021/07/08 09:32:06;;;;;;;;;;;34.40;35.10;;;;;;4964795;28;19927;-65
2021/07/08 09:34:32;;;;;;;;;;;33.70;35.10;;;;;;4971249;28;20421;-65
2021/07/08 09:37:01;;;;;;;;;;;33.10;36.30;;;;;;4971262;28;19926;-66
2021/07/08 09:39:29;;;;;;;;;;;32.80;36.60;;;;;;4971698;28;19925;-65
2021/07/08 09:41:55;;;;;;;;;;;32.40;37.30;;;;;;4969850;28;20343;-66
2021/07/08 09:44:21;;;;;;;;;;;32.30;38.30;;;;;;4968547;28;19960;-66
2021/07/08 09:46:47;;;;;;;;;;;32.20;38.90;;;;;;4957997;28;19922;-65
2021/07/08 09:49:13;;;;;;;;;;;32.10;38.90;;;;;;4967165;28;19934;-65
2021/07/08 09:51:41;;;;;;;;;;;31.80;38.60;;;;;;4967753;28;19970;-65
2021/07/08 09:54:19;;;;;;;;;;;31.40;38.70;;;;;;4966639;28;19962;-65
2021/07/08 09:56:53;;;;;;;;;;;30.90;39.40;;;;;;4968135;28;20278;-68
2021/07/08 09:59:20;;;;;;;;;;;30.40;40.20;;;;;;4969359;28;19926;-68
2021/07/08 10:01:53;;;;;;;;;;;30.00;41.10;;;;;;4971104;28;19918;-66
2021/07/08 10:04:19;;;;;;;;;;;29.70;41.80;;;;;;4971233;28;20347;-66
2021/07/08 10:06:44;;;;;;;;;;;29.50;42.70;;;;;;4971164;28;19961;-65
2021/07/08 10:09:15;;;;;;;;;;;30.00;43.90;;;;;;4970938;28;20410;-65
2021/07/08 10:11:41;;;;;;;;;;;30.40;43.00;;;;;;4971277;28;20374;-65
2021/07/08 10:14:07;;;;;;;;;;;30.40;42.90;;;;;;4971254;28;19918;-65
2021/07/08 10:16:33;;;;;;;;;;;30.20;42.30;;;;;;4970748;28;20043;-65
2021/07/08 10:19:01;;;;;;;;;;;29.80;42.20;;;;;;4969308;28;20016;-65
2021/07/08 10:21:30;;;;;;;;;;;29.50;42.30;;;;;;4971277;28;19953;-65
2021/07/08 10:23:56;;;;;;;;;;;29.10;42.40;;;;;;4970807;28;19975;-65
2021/07/08 10:26:21;;;;;;;;;;;28.80;43.40;;;;;;4971240;28;19993;-65
2021/07/08 10:28:47;;;;;;;;;;;28.40;43.30;;;;;;4970511;28;19922;-65
2021/07/08 10:31:17;;;;;;;;;;;28.30;44.10;;;;;;4966602;28;20298;-65
2021/07/08 10:34:01;;;;;;;;;;;28.30;45.20;;;;;;4962342;28;20336;-66
2021/07/08 10:36:31;;;;;;;;;;;28.40;45.60;;;;;;4969050;28;19925;-65
2021/07/08 10:39:04;;;;;;;;;;;28.50;45.40;;;;;;4965666;28;19934;-66
2021/07/08 10:41:30;;;;;;;;;;;28.60;45.50;;;;;;4953071;28;19924;-65
2021/07/08 10:43:55;;;;;;;;;;;28.70;46.00;;;;;;4970543;28;19918;-65
2021/07/08 10:46:33;;;;;;;;;;;29.00;46.40;;;;;;4970485;28;19961;-65
2021/07/08 10:49:08;;;;;;;;;;;29.00;46.20;;;;;;4970858;28;19922;-66
2021/07/08 10:51:38;;;;;;;;;;;29.10;46.10;;;;;;4970407;28;19924;-67
2021/07/08 10:54:23;;;;;;;;;;;29.00;45.60;;;;;;4967715;28;19925;-67
2021/07/08 10:56:49;;;;;;;;;;;29.20;46.70;;;;;;4967822;28;19952;-67
2021/07/08 10:59:14;;;;;;;;;;;29.40;46.70;;;;;;4967539;28;19993;-67
2021/07/08 11:01:42;;;;;;;;;;;29.50;46.70;;;;;;4967520;28;19918;-67
2021/07/08 11:04:09;;;;;;;;;;;29.60;46.70;;;;;;4968473;28;20287;-66
2021/07/08 11:06:34;;;;;;;;;;;29.50;45.90;;;;;;4969653;28;19918;-67
2021/07/08 11:09:07;;;;;;;;;;;29.40;45.40;;;;;;4967554;28;20366;-67
2021/07/08 11:11:33;;;;;;;;;;;29.30;45.50;;;;;;4969571;28;19929;-66
2021/07/08 11:14:08;;;;;;;;;;;29.30;45.20;;;;;;4968268;28;20000;-66
2021/07/08 11:16:43;;;;;;;;;;;29.30;44.70;;;;;;4969787;28;19918;-67
2021/07/08 11:19:12;;;;;;;;;;;29.30;44.30;;;;;;4968982;28;19919;-67
2021/07/08 11:21:51;;;;;;;;;;;29.30;44.30;;;;;;4970106;28;19922;-62
2021/07/08 11:24:17;;;;;;;;;;;30.20;46.10;;;;;;4970312;28;19918;-62
2021/07/08 11:26:55;;;;;;;;;;;31.60;44.70;;;;;;4969459;28;19918;-63
2021/07/08 11:29:39;;;;;;;;;;;31.80;42.90;;;;;;4969708;28;19925;-64
2021/07/08 11:32:22;;;;;;;;;;;32.20;42.80;;;;;;4969937;28;19983;-63
2021/07/08 11:34:52;;;;;;;;;;;33.50;42.30;;;;;;4969015;28;19918;-64
2021/07/08 11:37:21;;;;;;;;;;;34.20;41.00;;;;;;4969275;28;19925;-63
2021/07/08 11:39:47;;;;;;;;;;;34.10;39.10;;;;;;4969959;28;19918;-63
2021/07/08 11:42:13;;;;;;;;;;;33.50;38.50;;;;;;4969657;28;19922;-64
2021/07/08 11:44:40;;;;;;;;;;;33.30;38.90;;;;;;4969831;28;19967;-63
2021/07/08 11:47:06;;;;;;;;;;;33.40;38.10;;;;;;4969649;28;19919;-64
2021/07/08 11:49:31;;;;;;;;;;;33.40;37.90;;;;;;4969651;28;19918;-63
2021/07/08 11:51:57;;;;;;;;;;;33.20;37.50;;;;;;4969783;28;19922;-64
2021/07/08 11:54:22;;;;;;;;;;;33.00;37.30;;;;;;4969501;28;19929;-63
2021/07/08 11:56:53;;;;;;;;;;;32.80;37.60;;;;;;4969419;28;20011;-63
2021/07/08 11:59:19;;;;;;;;;;;32.70;38.00;;;;;;4969877;28;19918;-63
2021/07/08 12:01:46;;;;;;;;;;;32.80;38.70;;;;;;4968186;28;20294;-63
2021/07/08 12:04:21;;;;;;;;;;;32.90;38.30;;;;;;4968128;28;19965;-63
2021/07/08 12:06:46;;;;;;;;;;;32.80;38.20;;;;;;4967746;28;19922;-63
2021/07/08 12:09:13;;;;;;;;;;;32.60;38.20;;;;;;4969578;28;19925;-64
2021/07/08 12:11:41;;;;;;;;;;;32.60;38.60;;;;;;4969315;28;20267;-63
2021/07/08 12:14:11;;;;;;;;;;;32.70;38.10;;;;;;4969633;28;19997;-63
2021/07/08 12:16:37;;;;;;;;;;;32.70;38.40;;;;;;4969428;28;20111;-63
2021/07/08 12:19:05;;;;;;;;;;;32.70;38.50;;;;;;4969036;28;20279;-63
2021/07/08 12:21:37;;;;;;;;;;;32.40;37.70;;;;;;4969630;28;20006;-63
2021/07/08 12:24:18;;;;;;;;;;;31.90;38.00;;;;;;4969040;28;19918;-63
2021/07/08 12:26:45;;;;;;;;;;;31.60;38.60;;;;;;4967920;28;19925;-63
2021/07/08 12:29:10;;;;;;;;;;;31.70;39.50;;;;;;4969074;28;19918;-64
2021/07/08 12:31:42;;;;;;;;;;;31.40;38.70;;;;;;4969542;28;19975;-63
2021/07/08 12:34:08;;;;;;;;;;;31.00;38.70;;;;;;4969380;28;19918;-63
2021/07/08 12:36:33;;;;;;;;;;;30.50;38.70;;;;;;4968506;28;19976;-63
2021/07/08 12:38:59;;;;;;;;;;;30.40;39.40;;;;;;4968998;28;20450;-63
2021/07/08 12:41:25;;;;;;;;;;;30.40;40.20;;;;;;4968932;28;19923;-63
2021/07/08 12:43:50;;;;;;;;;;;30.40;39.90;;;;;;4972059;28;19926;-63
2021/07/08 12:46:16;;;;;;;;;;;30.40;40.00;;;;;;4971205;28;19925;-64
2021/07/08 12:48:42;;;;;;;;;;;30.40;40.20;;;;;;4971600;28;19929;-63
2021/07/08 12:51:08;;;;;;;;;;;30.50;39.90;;;;;;4972444;28;20321;-64
2021/07/08 12:53:34;;;;;;;;;;;30.70;39.70;;;;;;4972061;28;19926;-63
2021/07/08 12:56:08;;;;;;;;;;;30.60;39.10;;;;;;4970792;28;19918;-63
2021/07/08 12:58:35;;;;;;;;;;;30.30;38.60;;;;;;4971904;28;19922;-63
2021/07/08 13:01:01;;;;;;;;;;;29.90;38.70;;;;;;4970497;28;19926;-64
2021/07/08 13:03:28;;;;;;;;;;;29.60;39.20;;;;;;4971044;28;19919;-63
2021/07/08 13:05:54;;;;;;;;;;;29.50;40.10;;;;;;4972219;28;19919;-64
2021/07/08 13:08:22;;;;;;;;;;;29.70;40.00;;;;;;4971385;28;19914;-65
2021/07/08 13:10:52;;;;;;;;;;;29.90;40.40;;;;;;4972143;28;19918;-64
2021/07/08 13:13:25;;;;;;;;;;;30.00;40.50;;;;;;4971966;28;20350;-66
2021/07/08 13:15:51;;;;;;;;;;;30.20;40.60;;;;;;4972071;28;19968;-65
2021/07/08 13:18:17;;;;;;;;;;;30.30;40.70;;;;;;4970080;28;20370;-65
2021/07/08 13:20:45;;;;;;;;;;;30.40;40.30;;;;;;4971588;28;19924;-63
2021/07/08 13:23:18;;;;;;;;;;;30.50;40.00;;;;;;4971856;28;19922;-63
2021/07/08 13:25:44;;;;;;;;;;;30.70;39.90;;;;;;4971636;28;20297;-63
2021/07/08 13:28:36;;;;;;;;;;;30.80;39.50;;;;;;4971452;28;19918;-63
2021/07/08 13:31:10;;;;;;;;;;;30.80;39.30;;;;;;4971334;28;19918;-63
2021/07/08 13:33:38;;;;;;;;;;;30.70;39.00;;;;;;4971863;28;19918;-63
2021/07/08 13:36:05;;;;;;;;;;;30.50;38.80;;;;;;4970007;28;19957;-64
2021/07/08 13:38:35;;;;;;;;;;;30.40;38.70;;;;;;4971309;28;19922;-63
2021/07/08 13:41:12;;;;;;;;;;;30.20;38.50;;;;;;4971264;28;19919;-63
2021/07/08 13:43:45;;;;;;;;;;;30.00;38.50;;;;;;4971694;28;19929;-63
2021/07/08 13:46:12;;;;;;;;;;;29.70;38.60;;;;;;4971320;28;19922;-63
2021/07/08 13:48:38;;;;;;;;;;;29.60;38.90;;;;;;4971280;28;19983;-63
2021/07/08 13:51:05;;;;;;;;;;;29.50;39.20;;;;;;4971399;28;20485;-63
2021/07/08 13:53:30;;;;;;;;;;;29.40;39.80;;;;;;4969541;28;19925;-63
2021/07/08 13:55:56;;;;;;;;;;;29.40;40.50;;;;;;4970369;28;19918;-63
2021/07/08 13:58:21;;;;;;;;;;;29.40;40.80;;;;;;4969609;28;19922;-63
2021/07/08 14:00:47;;;;;;;;;;;29.60;41.40;;;;;;4970078;28;20370;-64
2021/07/08 14:03:12;;;;;;;;;;;29.80;41.30;;;;;;4971472;28;19929;-63
2021/07/08 14:05:38;;;;;;;;;;;29.80;40.90;;;;;;4971036;28;19941;-63
2021/07/08 14:08:04;;;;;;;;;;;29.70;40.70;;;;;;4971000;28;19926;-63
2021/07/08 14:10:29;;;;;;;;;;;29.70;40.70;;;;;;4971289;28;19918;-64
2021/07/08 14:12:55;;;;;;;;;;;29.80;40.60;;;;;;4970794;28;19950;-64
2021/07/08 14:15:20;;;;;;;;;;;30.00;41.10;;;;;;4969996;28;19918;-66
2021/07/08 14:17:46;;;;;;;;;;;30.20;41.40;;;;;;4970395;28;19926;-64